createdAt,value
2023-03-10T00:02:35.507Z,23.80
2023-03-10T00:05:29.224Z,34.00
2023-03-10T00:08:22.755Z,31.00
2023-03-10T00:11:17.333Z,22.50
2023-03-10T00:14:10.939Z,24.80
2023-03-10T00:17:04.594Z,28.00
2023-03-10T00:19:58.400Z,25.90
2023-03-10T00:22:51.982Z,24.80
2023-03-10T00:25:45.586Z,27.10
2023-03-10T00:28:39.266Z,25.20
2023-03-10T00:31:34.786Z,27.10
2023-03-10T00:34:28.476Z,24.80
2023-03-10T00:37:22.040Z,25.40
2023-03-10T00:40:18.075Z,25.30
2023-03-10T00:43:11.647Z,24.10
2023-03-10T00:46:07.017Z,24.00
2023-03-10T00:49:01.111Z,24.00
2023-03-10T00:51:54.720Z,23.80
2023-03-10T00:54:48.276Z,22.40
2023-03-10T00:57:41.867Z,23.10
2023-03-10T01:00:35.560Z,24.30
2023-03-10T01:03:32.170Z,23.40
2023-03-10T01:06:26.376Z,26.10
2023-03-10T01:09:20.254Z,27.20
2023-03-10T01:12:14.106Z,22.60
2023-03-10T01:15:09.955Z,23.30
2023-03-10T01:18:06.418Z,22.70
2023-03-10T01:21:00.144Z,19.60
2023-03-10T01:23:54.042Z,23.40
2023-03-10T01:26:47.605Z,23.00
2023-03-10T01:29:41.162Z,22.30
2023-03-10T01:32:34.705Z,22.50
2023-03-10T01:35:28.196Z,25.10
2023-03-10T01:38:21.806Z,20.70
2023-03-10T01:41:16.798Z,21.70
2023-03-10T01:44:25.647Z,22.00
2023-03-10T01:47:19.368Z,20.30
2023-03-10T01:50:17.486Z,21.60
2023-03-10T01:53:11.714Z,21.10
2023-03-10T01:56:07.576Z,19.40
2023-03-10T01:59:01.285Z,19.10
2023-03-10T02:01:56.228Z,19.20
2023-03-10T02:04:52.126Z,20.20
2023-03-10T02:07:46.042Z,20.10
2023-03-10T02:10:40.056Z,18.60
2023-03-10T02:13:33.866Z,17.50
2023-03-10T02:16:27.493Z,19.50
2023-03-10T02:19:44.795Z,20.70
2023-03-10T02:22:41.173Z,17.10
2023-03-10T02:25:46.627Z,15.40
2023-03-10T02:28:40.152Z,16.60
2023-03-10T02:31:34.507Z,19.50
2023-03-10T02:34:29.554Z,16.60
2023-03-10T02:37:50.689Z,17.10
2023-03-10T02:40:51.668Z,17.60
2023-03-10T02:43:45.292Z,18.00
2023-03-10T02:46:39.137Z,17.80
2023-03-10T02:49:34.828Z,17.30
2023-03-10T02:52:41.548Z,16.40
2023-03-10T02:55:35.157Z,17.00
2023-03-10T02:58:31.476Z,14.30
2023-03-10T03:01:26.442Z,16.10
2023-03-10T03:04:20.206Z,14.80
2023-03-10T03:07:14.026Z,16.90
2023-03-10T03:10:09.786Z,14.20
2023-03-10T03:13:03.407Z,16.10
2023-03-10T03:15:57.118Z,14.30
2023-03-10T03:18:50.663Z,16.00
2023-03-10T03:21:50.170Z,17.50
2023-03-10T03:24:43.868Z,13.30
2023-03-10T03:27:37.812Z,15.30
2023-03-10T03:30:32.671Z,13.50
2023-03-10T03:33:26.376Z,14.20
2023-03-10T03:36:20.132Z,13.50
2023-03-10T03:39:17.343Z,14.70
2023-03-10T03:42:11.618Z,15.50
2023-03-10T03:45:05.882Z,14.70
2023-03-10T03:47:59.663Z,12.70
2023-03-10T03:50:53.284Z,13.40
2023-03-10T03:53:46.876Z,14.40
2023-03-10T03:56:40.494Z,10.90
2023-03-10T03:59:34.126Z,12.70
2023-03-10T04:02:27.900Z,14.50
2023-03-10T04:05:21.844Z,12.00
2023-03-10T04:08:16.171Z,12.70
2023-03-10T04:11:10.199Z,12.40
2023-03-10T04:14:03.780Z,12.10
2023-03-10T04:16:57.335Z,11.90
2023-03-10T04:20:04.606Z,11.00
2023-03-10T04:23:02.411Z,11.30
2023-03-10T04:25:56.023Z,14.10
2023-03-10T04:28:49.576Z,10.60
2023-03-10T04:31:55.799Z,10.80
2023-03-10T04:34:58.021Z,10.90
2023-03-10T04:37:51.672Z,10.10
2023-03-10T04:40:45.585Z,11.00
2023-03-10T04:43:42.061Z,11.80
2023-03-10T04:46:37.098Z,9.60
2023-03-10T04:49:30.832Z,9.70
2023-03-10T04:52:24.686Z,13.10
2023-03-10T04:55:18.991Z,10.00
2023-03-10T04:58:14.177Z,10.40
2023-03-10T05:01:14.883Z,9.80
2023-03-10T05:04:09.101Z,7.90
2023-03-10T05:07:02.891Z,9.50
2023-03-10T05:09:56.331Z,10.30
2023-03-10T05:12:50.731Z,9.10
2023-03-10T05:15:45.018Z,10.40
2023-03-10T05:18:38.695Z,9.60
2023-03-10T05:21:32.307Z,11.30
2023-03-10T05:24:25.847Z,10.10
2023-03-10T05:27:22.736Z,8.30
2023-03-10T05:30:18.046Z,10.20
2023-03-10T05:33:11.684Z,8.20
2023-03-10T05:36:10.235Z,9.00
2023-03-10T05:39:06.117Z,9.70
2023-03-10T05:41:59.734Z,7.30
2023-03-10T05:44:53.295Z,7.70
2023-03-10T05:47:47.535Z,9.50
2023-03-10T05:50:41.122Z,8.10
2023-03-10T05:53:38.461Z,7.90
2023-03-10T05:56:32.069Z,8.40
2023-03-10T05:59:27.032Z,9.40
2023-03-10T06:02:20.656Z,8.90
2023-03-10T06:05:15.232Z,8.80
2023-03-10T06:07:55.029Z,7.50
2023-03-10T06:10:48.734Z,9.60
2023-03-10T06:13:42.334Z,7.40
2023-03-10T06:16:36.110Z,8.80
2023-03-10T06:19:29.804Z,8.70
2023-03-10T06:22:23.488Z,7.30
2023-03-10T06:25:17.130Z,7.70
2023-03-10T06:28:11.623Z,8.40
2023-03-10T06:31:08.523Z,7.90
2023-03-10T06:34:04.398Z,8.70
2023-03-10T06:36:40.886Z,7.30
2023-03-10T06:39:34.492Z,6.80
2023-03-10T06:42:28.163Z,7.70
2023-03-10T06:45:21.999Z,7.80
2023-03-10T06:48:16.214Z,8.40
2023-03-10T06:51:14.110Z,8.20
2023-03-10T06:54:07.882Z,8.10
2023-03-10T06:57:01.659Z,7.90
2023-03-10T06:59:55.386Z,7.90
2023-03-10T07:02:49.017Z,8.40
2023-03-10T07:05:42.620Z,8.80
2023-03-10T07:08:36.385Z,9.30
2023-03-10T07:11:30.230Z,10.00
2023-03-10T07:14:24.017Z,9.40
2023-03-10T07:17:17.751Z,11.20
2023-03-10T07:20:14.992Z,8.80
2023-03-10T07:23:08.568Z,7.70
2023-03-10T07:26:02.471Z,10.60
2023-03-10T07:28:56.132Z,9.60
2023-03-10T07:31:49.793Z,7.80
2023-03-10T07:34:43.434Z,18.10
2023-03-10T07:37:40.118Z,9.20
2023-03-10T07:40:33.773Z,7.10
2023-03-10T07:43:27.408Z,9.90
2023-03-10T07:46:22.204Z,7.00
2023-03-10T07:49:16.058Z,7.50
2023-03-10T07:52:09.942Z,7.80
2023-03-10T07:55:03.959Z,9.90
2023-03-10T07:58:00.308Z,7.00
2023-03-10T08:00:59.769Z,8.40
2023-03-10T08:03:55.418Z,7.20
2023-03-10T08:06:51.436Z,8.70
2023-03-10T08:10:05.836Z,7.60
2023-03-10T08:12:59.627Z,6.40
2023-03-10T08:15:53.991Z,7.40
2023-03-10T08:18:47.923Z,6.40
2023-03-10T08:21:41.541Z,6.70
2023-03-10T08:24:35.564Z,5.40
2023-03-10T08:27:30.178Z,7.30
2023-03-10T08:30:24.179Z,8.20
2023-03-10T08:33:17.845Z,8.30
2023-03-10T08:36:16.362Z,9.30
2023-03-10T08:39:10.427Z,7.30
2023-03-10T08:42:04.051Z,7.40
2023-03-10T08:44:59.723Z,6.00
2023-03-10T08:47:53.320Z,5.40
2023-03-10T08:50:46.933Z,5.40
2023-03-10T08:53:42.526Z,7.00
2023-03-10T08:56:36.234Z,8.40
2023-03-10T08:59:29.930Z,6.00
2023-03-10T09:02:23.766Z,6.40
2023-03-10T09:05:17.557Z,7.10
2023-03-10T09:08:12.510Z,6.30
2023-03-10T09:11:07.081Z,7.50
2023-03-10T09:14:02.386Z,5.60
2023-03-10T09:16:56.331Z,6.60
2023-03-10T09:19:50.296Z,5.80
2023-03-10T09:22:44.001Z,6.30
2023-03-10T09:25:40.185Z,6.60
2023-03-10T09:28:33.917Z,4.90
2023-03-10T09:31:36.063Z,6.50
2023-03-10T09:34:30.074Z,8.10
2023-03-10T09:37:24.049Z,6.20
2023-03-10T09:40:21.392Z,5.80
2023-03-10T09:43:20.504Z,6.80
2023-03-10T09:46:22.430Z,4.40
2023-03-10T09:49:24.007Z,5.80
2023-03-10T09:52:29.302Z,6.10
2023-03-10T09:55:29.708Z,6.50
2023-03-10T09:58:40.395Z,5.00
2023-03-10T10:01:35.641Z,5.20
2023-03-10T10:04:33.036Z,4.40
2023-03-10T10:07:33.864Z,5.40
2023-03-10T10:10:32.128Z,5.20
2023-03-10T10:13:30.847Z,7.40
2023-03-10T10:16:37.150Z,4.50
2023-03-10T10:19:31.501Z,5.70
2023-03-10T10:22:28.649Z,4.80
2023-03-10T10:25:20.472Z,5.70
2023-03-10T10:28:27.732Z,8.10
2023-03-10T10:31:24.994Z,6.60
2023-03-10T10:34:26.684Z,4.20
2023-03-10T10:37:36.281Z,5.30
2023-03-10T10:40:35.045Z,6.60
2023-03-10T10:43:28.882Z,5.10
2023-03-10T10:46:30.648Z,4.60
2023-03-10T10:49:28.753Z,6.20
2023-03-10T10:52:27.078Z,5.60
2023-03-10T10:55:34.407Z,6.90
2023-03-10T10:58:35.746Z,4.70
2023-03-10T11:01:47.213Z,6.80
2023-03-10T11:04:48.187Z,5.20
2023-03-10T11:07:41.890Z,6.40
2023-03-10T11:10:38.095Z,4.80
2023-03-10T11:13:39.220Z,9.50
2023-03-10T11:16:49.248Z,7.80
2023-03-10T11:20:08.676Z,9.80
2023-03-10T11:23:16.460Z,7.00
2023-03-10T11:26:20.919Z,9.00
2023-03-10T11:29:27.569Z,5.30
2023-03-10T11:32:28.805Z,7.40
2023-03-10T11:35:31.932Z,7.10
2023-03-10T11:38:38.493Z,6.80
2023-03-10T11:41:37.090Z,6.60
2023-03-10T11:44:58.127Z,5.60
2023-03-10T11:48:04.113Z,6.30
2023-03-10T11:51:00.328Z,5.50
2023-03-10T11:54:16.118Z,6.00
2023-03-10T11:57:19.284Z,5.70
2023-03-10T12:00:26.067Z,5.60
2023-03-10T12:03:30.118Z,7.80
2023-03-10T12:06:30.681Z,4.60
2023-03-10T12:09:38.470Z,8.30
2023-03-10T12:12:37.253Z,5.70
2023-03-10T12:15:39.048Z,6.30
2023-03-10T12:18:34.763Z,5.40
2023-03-10T12:21:31.131Z,5.80
2023-03-10T12:24:48.534Z,4.10
2023-03-10T12:28:29.101Z,4.90
2023-03-10T12:31:48.839Z,5.60
2023-03-10T12:34:42.736Z,4.30
2023-03-10T12:37:36.376Z,5.20
2023-03-10T12:40:53.336Z,5.80
2023-03-10T12:44:01.322Z,5.00
2023-03-10T12:47:28.335Z,6.30
2023-03-10T12:50:52.755Z,5.30
2023-03-10T12:53:56.165Z,4.10
2023-03-10T12:57:00.535Z,5.50
2023-03-10T13:00:06.730Z,6.70
2023-03-10T13:03:08.526Z,5.90
2023-03-10T13:06:09.428Z,4.80
2023-03-10T13:09:27.389Z,6.20
2023-03-10T13:12:28.352Z,5.90
2023-03-10T13:15:08.212Z,12.50
2023-03-10T13:18:21.577Z,5.70
2023-03-10T13:21:37.040Z,6.10
2023-03-10T13:24:27.556Z,5.60
2023-03-10T13:27:25.106Z,5.00
2023-03-10T13:33:00.005Z,5.80
2023-03-10T13:35:53.815Z,5.70
2023-03-10T13:38:47.888Z,4.60
2023-03-10T13:41:45.806Z,6.20
2023-03-10T13:44:47.462Z,4.70
2023-03-10T13:47:32.140Z,7.20
2023-03-10T13:50:26.800Z,4.60
2023-03-10T13:53:28.038Z,4.50
2023-03-10T13:56:27.832Z,5.00
2023-03-10T13:59:24.793Z,5.30
2023-03-10T14:02:24.522Z,4.20
2023-03-10T14:08:32.864Z,3.80
2023-03-10T14:11:35.429Z,4.30
2023-03-10T14:14:34.950Z,5.30
2023-03-10T14:17:37.664Z,4.30
2023-03-10T14:20:34.367Z,4.60
2023-03-10T14:23:39.672Z,6.10
2023-03-10T14:26:33.496Z,5.50
2023-03-10T14:29:27.643Z,8.20
2023-03-10T14:32:22.059Z,6.70
2023-03-10T14:35:20.578Z,5.30
2023-03-10T14:38:15.532Z,5.60
2023-03-10T14:41:12.279Z,8.90
2023-03-10T14:44:06.475Z,11.20
2023-03-10T14:47:01.281Z,19.40
2023-03-10T14:49:56.562Z,19.90
2023-03-10T14:52:50.479Z,22.00
2023-03-10T14:55:48.004Z,12.40
2023-03-10T14:58:48.551Z,29.00
2023-03-10T15:01:42.556Z,21.60
2023-03-10T15:04:36.344Z,28.10
2023-03-10T15:07:30.067Z,18.00
2023-03-10T15:10:25.257Z,21.30
2023-03-10T15:13:19.767Z,21.00
2023-03-10T15:16:16.592Z,13.80
2023-03-10T15:19:18.469Z,17.20
2023-03-10T15:22:12.422Z,12.50
2023-03-10T15:25:07.181Z,14.20
2023-03-10T15:28:00.810Z,14.80
2023-03-10T15:30:55.061Z,17.80
2023-03-10T15:33:48.732Z,18.70
2023-03-10T15:36:42.877Z,13.10
2023-03-10T15:39:37.377Z,18.20
2023-03-10T15:42:31.338Z,14.60
2023-03-10T15:45:26.213Z,13.40
2023-03-10T15:48:22.125Z,13.70
2023-03-10T15:51:18.327Z,12.00
2023-03-10T15:54:13.915Z,13.30
2023-03-10T15:57:09.852Z,11.70
2023-03-10T16:00:04.358Z,13.50
2023-03-10T16:02:58.978Z,11.40
2023-03-10T16:05:52.717Z,10.80
2023-03-10T16:08:47.917Z,10.10
2023-03-10T16:11:41.689Z,16.00
2023-03-10T16:14:35.695Z,10.60
2023-03-10T16:17:30.979Z,10.00
2023-03-10T16:20:24.793Z,11.00
2023-03-10T16:23:18.436Z,11.60
2023-03-10T16:26:16.225Z,8.80
2023-03-10T16:29:09.861Z,11.00
2023-03-10T16:32:03.571Z,10.80
2023-03-10T16:34:59.969Z,9.80
2023-03-10T16:38:14.700Z,9.80
2023-03-10T16:41:09.773Z,9.20
2023-03-10T16:44:06.811Z,8.70
2023-03-10T16:47:00.725Z,10.90
2023-03-10T16:49:54.699Z,10.40
2023-03-10T16:52:48.668Z,11.20
2023-03-10T16:55:42.297Z,8.90
2023-03-10T16:58:35.902Z,8.60
2023-03-10T17:01:29.667Z,9.90
2023-03-10T17:04:23.656Z,8.60
2023-03-10T17:07:19.230Z,9.20
2023-03-10T17:10:14.681Z,10.60
2023-03-10T17:12:57.006Z,8.10
2023-03-10T17:15:50.925Z,8.80
2023-03-10T17:18:45.425Z,10.00
2023-03-10T17:21:41.542Z,9.80
2023-03-10T17:24:35.869Z,8.60
2023-03-10T17:27:30.380Z,10.50
2023-03-10T17:30:24.360Z,8.10
2023-03-10T17:33:18.064Z,8.80
2023-03-10T17:36:14.786Z,8.80
2023-03-10T17:39:10.240Z,9.30
2023-03-10T17:42:05.451Z,7.90
2023-03-10T17:45:00.269Z,8.60
2023-03-10T17:47:54.508Z,6.60
2023-03-10T17:50:52.182Z,7.40
2023-03-10T17:53:46.824Z,8.30
2023-03-10T17:56:41.504Z,8.70
2023-03-10T17:59:39.091Z,8.60
2023-03-10T18:02:33.436Z,8.70
2023-03-10T18:05:27.251Z,7.30
2023-03-10T18:08:20.856Z,7.20
2023-03-10T18:11:14.623Z,8.90
2023-03-10T18:14:08.610Z,8.20
2023-03-10T18:17:03.092Z,7.60
2023-03-10T18:19:57.102Z,5.40
2023-03-10T18:22:50.887Z,8.70
2023-03-10T18:25:45.967Z,7.80
2023-03-10T18:28:40.324Z,7.80
2023-03-10T18:31:35.775Z,8.90
2023-03-10T18:34:29.702Z,7.00
2023-03-10T18:37:23.261Z,6.30
2023-03-10T18:40:19.600Z,8.90
2023-03-10T18:43:13.419Z,7.10
2023-03-10T18:46:08.367Z,6.40
2023-03-10T18:49:01.991Z,4.80
2023-03-10T18:51:55.592Z,7.00
2023-03-10T18:54:51.002Z,8.60
2023-03-10T18:57:45.811Z,6.00
2023-03-10T19:00:40.133Z,7.60
2023-03-10T19:03:34.174Z,5.60
2023-03-10T19:06:32.318Z,9.10
2023-03-10T19:09:27.771Z,8.00
2023-03-10T19:12:24.745Z,7.30
2023-03-10T19:15:19.163Z,5.00
2023-03-10T19:18:13.177Z,6.20
2023-03-10T19:21:09.634Z,6.70
2023-03-10T19:24:05.197Z,7.70
2023-03-10T19:27:00.056Z,8.90
2023-03-10T19:29:56.754Z,6.50
2023-03-10T19:32:51.352Z,6.90
2023-03-10T19:35:46.080Z,8.00
2023-03-10T19:38:40.833Z,7.00
2023-03-10T19:41:34.592Z,8.20
2023-03-10T19:44:28.781Z,7.70
2023-03-10T19:47:23.446Z,7.00
2023-03-10T19:50:18.890Z,7.40
2023-03-10T19:53:12.787Z,6.80
2023-03-10T19:56:10.149Z,8.20
2023-03-10T19:59:04.161Z,5.70
2023-03-10T20:02:01.601Z,5.70
2023-03-10T20:04:55.355Z,6.80
2023-03-10T20:07:49.607Z,8.50
2023-03-10T20:10:44.964Z,9.80
2023-03-10T20:13:38.577Z,7.40
2023-03-10T20:16:32.985Z,7.40
2023-03-10T20:19:33.660Z,7.60
2023-03-10T20:22:27.415Z,7.90
2023-03-10T20:25:24.548Z,7.10
2023-03-10T20:28:18.833Z,7.30
2023-03-10T20:31:15.344Z,7.20
2023-03-10T20:34:16.834Z,8.00
2023-03-10T20:37:10.508Z,9.70
2023-03-10T20:40:06.065Z,6.50
2023-03-10T20:43:00.650Z,8.90
2023-03-10T20:45:57.022Z,8.30
2023-03-10T20:48:52.509Z,7.50
2023-03-10T20:51:46.176Z,7.40
2023-03-10T20:54:39.789Z,6.20
2023-03-10T20:57:34.265Z,8.90
2023-03-10T21:00:31.265Z,7.40
2023-03-10T21:03:28.657Z,8.10
2023-03-10T21:06:22.355Z,7.70
2023-03-10T21:09:16.571Z,9.50
2023-03-10T21:12:11.346Z,8.50
2023-03-10T21:15:05.721Z,10.30
2023-03-10T21:17:59.407Z,9.80
2023-03-10T21:20:54.856Z,10.20
2023-03-10T21:23:49.407Z,7.80
2023-03-10T21:26:43.854Z,11.00
2023-03-10T21:29:37.877Z,9.50
2023-03-10T21:32:33.211Z,12.00
2023-03-10T21:35:30.616Z,11.20
2023-03-10T21:38:26.082Z,10.50
2023-03-10T21:41:23.116Z,8.30
2023-03-10T21:44:08.031Z,9.30
2023-03-10T21:47:01.717Z,8.00
2023-03-10T21:49:55.443Z,9.50
2023-03-10T21:52:49.460Z,9.80
2023-03-10T21:55:43.328Z,10.90
2023-03-10T21:58:37.047Z,11.10
2023-03-10T22:01:30.732Z,10.90
2023-03-10T22:04:24.345Z,10.40
2023-03-10T22:07:18.096Z,12.00
2023-03-10T22:10:14.457Z,11.10
2023-03-10T22:13:08.521Z,23.50
2023-03-10T22:16:05.631Z,17.80
2023-03-10T22:18:59.403Z,11.50
2023-03-10T22:21:53.082Z,13.50
2023-03-10T22:24:46.772Z,13.40
2023-03-10T22:27:40.374Z,16.20
2023-03-10T22:30:34.025Z,13.50
2023-03-10T22:33:27.775Z,14.80
2023-03-10T22:36:21.926Z,12.10
2023-03-10T22:39:16.585Z,16.10
2023-03-10T22:42:10.704Z,14.20
2023-03-10T22:45:05.072Z,15.20
2023-03-10T22:48:01.082Z,11.80
2023-03-10T22:50:54.765Z,15.10
2023-03-10T22:53:48.501Z,11.70
2023-03-10T22:56:42.127Z,12.90
2023-03-10T22:59:35.811Z,10.00
2023-03-10T23:02:29.548Z,10.90
2023-03-10T23:05:24.015Z,11.80
2023-03-10T23:08:17.733Z,11.70
2023-03-10T23:11:15.084Z,11.30
2023-03-10T23:14:08.688Z,15.60
2023-03-10T23:17:02.242Z,10.00
2023-03-10T23:19:56.960Z,12.20
2023-03-10T23:22:50.638Z,12.70
2023-03-10T23:25:47.426Z,14.20
2023-03-10T23:28:41.531Z,10.90
2023-03-10T23:31:35.157Z,11.20
2023-03-10T23:34:28.841Z,15.30
2023-03-10T23:37:22.405Z,12.00
2023-03-10T23:40:20.763Z,11.70
2023-03-10T23:43:15.723Z,14.90
2023-03-10T23:46:10.832Z,12.30
2023-03-10T23:49:04.462Z,11.30
2023-03-10T23:51:57.996Z,13.60
2023-03-10T23:54:51.566Z,13.20
2023-03-10T23:57:45.236Z,14.10
